Time;durP1;ratioP1;P1;durP2;ratioP2;P2;SDS_P1;SDS_P2;PMS_P1;PMS_P2;Temp;Humidity;BMP_temperature;BMP_pressure;BME280_temperature;BME280_humidity;BME280_pressure;Samples;Min_cycle;Max_cycle;Signal;HPM_P1;HPM_P2
2023/07/31 00:00:13;;;;;;;3.42;1.75;;;;;;;14.18;54.64;100710.50;4966300;28;20045;-69
2023/07/31 00:02:41;;;;;;;4.03;1.48;;;;;;;13.90;55.50;100712.09;4971347;28;20030;-69
2023/07/31 00:05:08;;;;;;;5.25;1.88;;;;;;;13.96;55.65;100713.50;4969209;28;20050;-69
2023/07/31 00:07:34;;;;;;;8.07;1.05;;;;;;;13.81;56.03;100707.38;4965500;28;20037;-69
2023/07/31 00:10:02;;;;;;;2.55;1.13;;;;;;;13.78;56.28;100718.03;4969575;28;20046;-69
2023/07/31 00:12:27;;;;;;;5.47;1.02;;;;;;;13.69;56.34;100713.28;4971199;28;20049;-69
2023/07/31 00:14:53;;;;;;;7.57;1.50;;;;;;;13.69;56.69;100703.63;4947256;28;20484;-69
2023/07/31 00:17:18;;;;;;;6.20;1.40;;;;;;;13.63;56.81;100704.00;4969397;28;20043;-69
2023/07/31 00:19:48;;;;;;;7.25;1.83;;;;;;;13.41;57.95;100700.84;4968508;28;20049;-69
2023/07/31 00:22:19;;;;;;;4.40;1.63;;;;;;;13.36;58.06;100695.84;4969898;28;20033;-69
2023/07/31 00:24:46;;;;;;;2.70;1.77;;;;;;;13.19;58.53;100703.75;4969923;28;20069;-68
2023/07/31 00:27:12;;;;;;;5.03;2.00;;;;;;;13.62;57.57;100688.31;4971240;28;20032;-69
2023/07/31 00:29:41;;;;;;;4.65;1.58;;;;;;;13.53;57.75;100693.09;4967928;28;20045;-68
2023/07/31 00:32:06;;;;;;;5.75;1.92;;;;;;;13.87;56.84;100699.13;4972102;28;20444;-69
2023/07/31 00:34:32;;;;;;;4.05;1.73;;;;;;;13.58;57.90;100694.66;4968842;28;20485;-69
2023/07/31 00:37:09;;;;;;;7.78;2.38;;;;;;;13.59;57.83;100701.63;4967842;28;20030;-69
2023/07/31 00:39:35;;;;;;;4.47;1.55;;;;;;;13.97;56.75;100696.00;4954485;28;20581;-68
2023/07/31 00:42:04;;;;;;;8.00;2.25;;;;;;;13.93;56.77;100696.16;4942630;28;20143;-70
2023/07/31 00:44:31;;;;;;;7.20;1.92;;;;;;;13.89;56.54;100692.00;4956711;28;20043;-71
2023/07/31 00:46:59;;;;;;;5.55;2.22;;;;;;;13.82;57.20;100688.03;4967616;28;20504;-71
2023/07/31 00:49:26;;;;;;;3.05;1.40;;;;;;;13.87;57.01;100688.59;4954613;28;20038;-71
2023/07/31 00:51:52;;;;;;;5.57;1.70;;;;;;;13.08;59.27;100692.06;4948895;28;20064;-67
2023/07/31 00:54:17;;;;;;;5.13;2.03;;;;;;;13.73;57.51;100683.31;4954405;28;20050;-69
2023/07/31 00:56:48;;;;;;;4.57;2.20;;;;;;;12.49;60.98;100682.88;4968246;28;20034;-72
2023/07/31 00:59:21;;;;;;;2.75;1.38;;;;;;;13.26;58.92;100686.75;4952839;28;20804;-72
2023/07/31 01:01:56;;;;;;;8.23;1.70;;;;;;;13.14;59.46;100687.41;4961201;28;20070;-68
2023/07/31 01:04:24;;;;;;;4.25;1.73;;;;;;;13.68;57.63;100682.72;4958539;28;20046;-66
2023/07/31 01:06:53;;;;;;;3.60;1.42;;;;;;;13.62;57.63;100680.44;4946236;28;20101;-67
2023/07/31 01:09:27;;;;;;;4.18;1.95;;;;;;;12.84;59.83;100672.38;4932967;28;20444;-70
2023/07/31 01:11:59;;;;;;;1.25;1.02;;;;;;;13.22;58.11;100661.59;4954633;28;20559;-70
2023/07/31 01:14:28;;;;;;;3.95;1.00;;;;;;;13.60;57.37;100661.28;4964901;28;20040;-66
2023/07/31 01:16:57;;;;;;;4.63;1.33;;;;;;;13.47;57.87;100655.84;4944673;28;20043;-66
2023/07/31 01:19:30;;;;;;;2.38;1.65;;;;;;;13.19;58.44;100656.53;4930275;28;20039;-67
2023/07/31 01:22:24;;;;;;;2.88;1.42;;;;;;;13.16;58.16;100659.31;4937225;28;20059;-69
2023/07/31 01:24:59;;;;;;;4.10;1.17;;;;;;;13.66;57.17;100651.28;4934406;28;20047;-70
2023/07/31 01:27:49;;;;;;;4.20;1.45;;;;;;;13.56;57.15;100655.31;4947197;28;20100;-72
2023/07/31 01:30:22;;;;;;;5.70;1.67;;;;;;;13.45;57.61;100655.06;4947859;28;20437;-67
2023/07/31 01:32:51;;;;;;;3.05;0.95;;;;;;;13.06;58.57;100646.69;4952266;28;20046;-71
2023/07/31 01:35:17;;;;;;;1.90;1.40;;;;;;;13.65;57.07;100649.59;4945012;28;20528;-70
2023/07/31 01:37:42;;;;;;;2.72;1.50;;;;;;;13.19;57.74;100649.50;4968081;28;22733;-67
2023/07/31 01:40:09;;;;;;;2.83;1.35;;;;;;;12.86;59.09;100652.16;4966736;28;20132;-67
2023/07/31 01:42:36;;;;;;;3.30;0.85;;;;;;;13.05;58.25;100650.25;4966506;28;20032;-67
2023/07/31 01:45:02;;;;;;;1.92;0.70;;;;;;;12.90;58.62;100645.81;4953814;28;20329;-69
2023/07/31 01:47:30;;;;;;;4.60;0.95;;;;;;;12.99;58.55;100647.94;4964640;28;20035;-68
2023/07/31 01:50:01;;;;;;;4.53;1.63;;;;;;;12.43;60.59;100647.34;4921387;28;20046;-69
2023/07/31 01:52:31;;;;;;;4.00;0.98;;;;;;;12.95;58.81;100649.03;4969811;28;20042;-70
2023/07/31 01:54:57;;;;;;;6.45;1.02;;;;;;;13.39;57.36;100640.53;4965692;28;20487;-71
2023/07/31 01:57:25;;;;;;;2.35;0.98;;;;;;;13.27;57.79;100638.56;4968175;28;20042;-68
2023/07/31 01:59:54;;;;;;;3.50;1.23;;;;;;;12.64;59.15;100647.16;4958894;28;20057;-70
2023/07/31 02:02:24;;;;;;;4.18;0.90;;;;;;;12.74;59.53;100650.19;4933284;28;20038;-70
2023/07/31 02:04:53;;;;;;;2.67;1.10;;;;;;;12.64;59.85;100645.38;4949559;28;20088;-70
2023/07/31 02:07:18;;;;;;;2.22;0.60;;;;;;;12.82;59.17;100637.50;4965626;28;20784;-69
2023/07/31 02:09:44;;;;;;;3.92;0.60;;;;;;;12.94;58.95;100630.75;4964059;28;20044;-70
2023/07/31 02:12:09;;;;;;;5.63;0.95;;;;;;;13.28;58.08;100632.41;4966646;28;20543;-70
2023/07/31 02:14:34;;;;;;;3.92;0.90;;;;;;;13.14;58.27;100627.03;4943702;28;20061;-70
2023/07/31 02:17:03;;;;;;;2.58;1.20;;;;;;;13.05;58.88;100625.81;4969157;28;20042;-70
2023/07/31 02:19:34;;;;;;;2.40;0.90;;;;;;;13.17;58.16;100625.13;4958727;28;20472;-70
2023/07/31 02:22:00;;;;;;;1.57;0.83;;;;;;;13.01;58.97;100621.66;4949226;28;20026;-70
2023/07/31 02:24:25;;;;;;;2.13;1.20;;;;;;;13.27;58.19;100614.94;4949367;28;20657;-70
2023/07/31 02:26:55;;;;;;;2.50;0.45;;;;;;;13.05;58.59;100605.66;4954298;28;20467;-71
2023/07/31 02:29:20;;;;;;;4.93;0.60;;;;;;;12.82;59.00;100611.28;4950305;28;20039;-70
2023/07/31 02:31:51;;;;;;;1.95;0.73;;;;;;;12.30;61.50;100609.59;4953811;28;20030;-71
2023/07/31 02:34:17;;;;;;;1.88;0.60;;;;;;;13.03;58.97;100610.13;4977301;28;20062;-71
2023/07/31 02:36:42;;;;;;;1.98;0.70;;;;;;;13.03;59.02;100599.63;4951556;28;20114;-69
2023/07/31 02:39:07;;;;;;;1.27;0.65;;;;;;;12.41;60.79;100602.03;4946747;28;20053;-67
2023/07/31 02:41:35;;;;;;;1.05;0.50;;;;;;;12.86;59.62;100602.31;4933197;28;20035;-67
2023/07/31 02:44:01;;;;;;;3.50;0.50;;;;;;;12.46;60.70;100601.78;4925661;28;20507;-67
2023/07/31 02:46:26;;;;;;;1.63;0.52;;;;;;;12.96;59.54;100590.41;4937924;28;20023;-66
2023/07/31 02:48:52;;;;;;;1.20;0.50;;;;;;;12.91;59.50;100589.78;4953121;28;20498;-66
2023/07/31 02:51:27;;;;;;;2.65;0.50;;;;;;;12.83;59.91;100592.84;4939762;28;20026;-66
2023/07/31 02:54:00;;;;;;;2.60;0.70;;;;;;;12.95;59.48;100588.72;4956306;28;20046;-67
2023/07/31 02:56:28;;;;;;;1.98;0.70;;;;;;;12.56;60.75;100584.66;4949891;28;20043;-67
2023/07/31 02:58:53;;;;;;;1.77;0.57;;;;;;;13.04;59.67;100585.56;4953077;28;20894;-66
2023/07/31 03:01:19;;;;;;;0.70;0.43;;;;;;;12.96;59.90;100579.06;4971265;28;20049;-66
2023/07/31 03:03:44;;;;;;;0.98;0.50;;;;;;;12.74;60.48;100584.63;4969877;28;20830;-67
2023/07/31 03:06:11;;;;;;;5.53;0.95;;;;;;;12.97;60.11;100581.59;4972224;28;20081;-66
2023/07/31 03:08:39;;;;;;;1.05;0.40;;;;;;;13.10;59.59;100582.63;4964032;28;20042;-66
2023/07/31 03:11:12;;;;;;;1.20;0.65;;;;;;;12.96;60.09;100579.94;4936070;28;20039;-66
2023/07/31 03:13:45;;;;;;;1.80;0.47;;;;;;;12.94;59.88;100583.53;4944244;28;20049;-66
2023/07/31 03:16:13;;;;;;;1.38;0.52;;;;;;;12.78;60.57;100579.16;4951501;28;20498;-65
2023/07/31 03:18:39;;;;;;;1.30;0.52;;;;;;;13.16;59.53;100575.31;4945456;28;20085;-66
2023/07/31 03:21:07;;;;;;;1.48;0.50;;;;;;;13.10;59.78;100581.78;4952239;28;20371;-67
2023/07/31 03:23:32;;;;;;;1.50;0.45;;;;;;;12.73;60.78;100580.31;4949980;28;20078;-65
2023/07/31 03:26:05;;;;;;;0.90;0.40;;;;;;;12.70;61.22;100573.47;4942334;28;20537;-65
2023/07/31 03:28:30;;;;;;;2.63;0.70;;;;;;;13.09;60.19;100583.56;4967988;28;20052;-66
2023/07/31 03:30:58;;;;;;;1.60;0.43;;;;;;;13.31;59.38;100583.19;4970747;28;20509;-66
2023/07/31 03:33:23;;;;;;;0.90;0.50;;;;;;;12.89;60.21;100586.41;4967344;28;20046;-66
2023/07/31 03:35:57;;;;;;;0.82;0.40;;;;;;;12.75;61.18;100581.06;4969035;28;20053;-66
2023/07/31 03:38:23;;;;;;;1.27;0.45;;;;;;;13.15;59.90;100582.38;4966782;28;20040;-66
2023/07/31 03:40:50;;;;;;;2.15;0.45;;;;;;;12.82;60.64;100577.19;4967922;28;20046;-65
2023/07/31 03:43:18;;;;;;;1.38;0.40;;;;;;;13.03;60.20;100581.28;4970346;28;20041;-66
2023/07/31 03:45:44;;;;;;;1.30;0.40;;;;;;;13.04;60.28;100572.47;4953378;28;20050;-66
2023/07/31 03:48:10;;;;;;;1.83;0.47;;;;;;;12.86;60.53;100560.34;4968696;28;20659;-66
2023/07/31 03:50:36;;;;;;;0.65;0.20;;;;;;;13.23;59.86;100563.59;4964565;28;20092;-67
2023/07/31 03:53:02;;;;;;;1.02;0.30;;;;;;;13.08;60.07;100566.13;4970999;28;20034;-67
2023/07/31 03:55:27;;;;;;;1.50;0.80;;;;;;;13.02;60.30;100566.44;4962051;28;21141;-68
2023/07/31 03:58:00;;;;;;;0.63;0.20;;;;;;;12.88;60.70;100567.22;4969041;28;20030;-70
2023/07/31 04:00:27;;;;;;;1.50;0.50;;;;;;;12.91;60.69;100560.94;4969102;28;20038;-69
2023/07/31 04:02:52;;;;;;;1.42;0.50;;;;;;;12.38;63.16;100572.50;4983400;28;20463;-67
2023/07/31 04:05:18;;;;;;;1.10;0.35;;;;;;;12.37;62.69;100568.19;4968233;28;20673;-68
2023/07/31 04:07:43;;;;;;;0.85;0.30;;;;;;;12.60;61.96;100578.31;4971395;28;20032;-68
2023/07/31 04:10:09;;;;;;;0.60;0.25;;;;;;;12.34;62.84;100573.63;4954473;28;20077;-67
2023/07/31 04:12:34;;;;;;;2.60;0.35;;;;;;;13.05;60.64;100568.91;4948661;28;20050;-68
2023/07/31 04:15:03;;;;;;;0.65;0.20;;;;;;;12.93;60.97;100566.97;4951425;28;20090;-67
2023/07/31 04:17:30;;;;;;;0.52;0.20;;;;;;;12.78;61.74;100570.41;4947665;28;20035;-67
2023/07/31 04:19:58;;;;;;;2.63;0.30;;;;;;;13.05;60.78;100568.09;4948308;28;20051;-69
2023/07/31 04:22:24;;;;;;;0.85;0.10;;;;;;;13.07;60.89;100564.44;4943241;28;20038;-68
2023/07/31 04:24:49;;;;;;;0.60;0.20;;;;;;;13.08;60.64;100560.88;4958908;28;20050;-67
2023/07/31 04:27:17;;;;;;;1.67;0.20;;;;;;;13.06;61.15;100562.72;4967458;28;20029;-68
2023/07/31 04:29:44;;;;;;;1.08;0.20;;;;;;;13.00;60.98;100556.97;4967115;28;20038;-67
2023/07/31 04:32:10;;;;;;;0.30;0.10;;;;;;;13.03;61.13;100557.66;4971075;28;20116;-67
2023/07/31 04:34:40;;;;;;;1.15;0.20;;;;;;;12.70;62.17;100555.09;4952340;28;20054;-65
2023/07/31 04:37:08;;;;;;;0.45;0.20;;;;;;;13.03;61.02;100556.81;4956002;28;20078;-66
2023/07/31 04:39:33;;;;;;;0.70;0.30;;;;;;;12.84;61.91;100559.59;4945982;28;20051;-67
2023/07/31 04:41:59;;;;;;;0.95;0.20;;;;;;;13.20;60.68;100551.44;4951607;28;20693;-73
2023/07/31 04:44:24;;;;;;;1.15;0.38;;;;;;;12.77;61.74;100560.88;4949097;28;20517;-65
2023/07/31 04:46:50;;;;;;;0.73;0.20;;;;;;;12.87;61.42;100557.66;4952452;28;20038;-68
2023/07/31 04:49:22;;;;;;;0.73;0.40;;;;;;;12.94;61.73;100558.16;4956132;28;20693;-69
2023/07/31 04:51:47;;;;;;;0.65;0.20;;;;;;;13.18;60.61;100550.69;4966316;28;20026;-67
2023/07/31 04:54:15;;;;;;;0.60;0.40;;;;;;;13.26;60.60;100552.91;4964246;28;20578;-67
2023/07/31 04:56:43;;;;;;;0.75;0.20;;;;;;;13.23;60.83;100553.09;4949278;28;20030;-69
2023/07/31 04:59:09;;;;;;;0.65;0.30;;;;;;;13.27;60.57;100547.56;4949030;28;20089;-69
2023/07/31 05:01:35;;;;;;;0.60;0.20;;;;;;;12.69;62.21;100546.41;4948716;28;20034;-70
2023/07/31 05:04:03;;;;;;;0.50;0.28;;;;;;;13.18;60.83;100549.84;4951758;28;20070;-68
2023/07/31 05:06:31;;;;;;;0.60;0.15;;;;;;;13.07;61.10;100540.81;4967724;28;20030;-69
2023/07/31 05:09:05;;;;;;;0.50;0.30;;;;;;;13.14;60.80;100543.09;4965219;28;20515;-69
2023/07/31 05:11:38;;;;;;;0.98;0.15;;;;;;;13.28;60.34;100545.78;4947238;28;20046;-67
2023/07/31 05:14:03;;;;;;;0.75;0.20;;;;;;;12.88;61.58;100543.59;4953596;28;20136;-68
2023/07/31 05:16:31;;;;;;;0.77;0.28;;;;;;;13.16;60.83;100543.84;4966589;28;20037;-70
2023/07/31 05:18:57;;;;;;;0.52;0.20;;;;;;;13.56;60.00;100531.91;4967753;28;20096;-67
2023/07/31 05:21:30;;;;;;;2.85;0.35;;;;;;;13.32;60.42;100536.81;4964681;28;20125;-66
2023/07/31 05:23:55;;;;;;;2.42;0.20;;;;;;;13.54;59.73;100536.44;4963920;28;20437;-68
2023/07/31 05:26:20;;;;;;;0.65;0.40;;;;;;;13.36;60.41;100529.59;4946088;28;20027;-70
2023/07/31 05:28:46;;;;;;;1.73;0.30;;;;;;;13.34;60.52;100532.31;4960430;28;20114;-69
2023/07/31 05:31:17;;;;;;;0.60;0.25;;;;;;;13.42;60.26;100527.47;4943229;28;20573;-70
2023/07/31 05:33:45;;;;;;;0.30;0.20;;;;;;;13.35;60.52;100525.28;4939068;28;20030;-69
2023/07/31 05:36:15;;;;;;;1.58;0.30;;;;;;;13.09;61.08;100520.59;4968425;28;20647;-68
2023/07/31 05:38:46;;;;;;;0.90;0.10;;;;;;;13.55;59.91;100517.09;4962848;28;20041;-70
2023/07/31 05:41:15;;;;;;;0.52;0.17;;;;;;;13.17;60.91;100519.31;4933184;28;20146;-70
2023/07/31 05:43:43;;;;;;;0.55;0.10;;;;;;;13.62;59.74;100520.25;4944543;28;20026;-70
2023/07/31 05:46:12;;;;;;;0.40;0.30;;;;;;;13.77;59.66;100521.13;4947674;28;20038;-70
2023/07/31 05:48:37;;;;;;;0.55;0.20;;;;;;;13.82;59.24;100519.91;4921610;28;20408;-70
2023/07/31 05:51:03;;;;;;;2.00;0.38;;;;;;;13.58;59.97;100529.25;4952782;28;20580;-69
2023/07/31 05:53:28;;;;;;;0.63;0.40;;;;;;;13.84;59.48;100523.28;4966493;28;20030;-70
2023/07/31 05:55:54;;;;;;;1.33;0.22;;;;;;;13.34;61.02;100519.19;4965163;28;20150;-69
2023/07/31 05:58:20;;;;;;;5.13;0.65;;;;;;;13.65;60.30;100518.31;4962534;28;20053;-70
2023/07/31 06:00:46;;;;;;;0.75;0.20;;;;;;;13.64;60.18;100518.38;4970113;28;20034;-70
2023/07/31 06:03:11;;;;;;;0.52;0.20;;;;;;;14.06;59.38;100516.78;4972668;28;20597;-69
2023/07/31 06:05:37;;;;;;;0.43;0.10;;;;;;;13.89;59.25;100515.13;4949949;28;20046;-70
2023/07/31 06:08:02;;;;;;;1.92;0.32;;;;;;;14.14;59.02;100520.63;4968868;28;20054;-70
2023/07/31 06:10:28;;;;;;;0.88;0.20;;;;;;;13.89;59.46;100518.59;4970134;28;20522;-70
2023/07/31 06:12:53;;;;;;;2.97;0.20;;;;;;;14.01;59.55;100518.81;4972101;28;20038;-69
2023/07/31 06:15:19;;;;;;;0.80;0.20;;;;;;;13.73;60.46;100525.72;4966707;28;20042;-69
2023/07/31 06:17:45;;;;;;;0.93;0.20;;;;;;;13.69;60.08;100529.44;4973822;28;20065;-70
2023/07/31 06:20:10;;;;;;;2.13;0.20;;;;;;;13.75;59.57;100523.00;4971511;28;20100;-69
2023/07/31 06:22:36;;;;;;;0.52;0.20;;;;;;;13.89;59.62;100515.13;4967404;28;20404;-69
2023/07/31 06:25:02;;;;;;;0.40;0.20;;;;;;;14.35;58.53;100513.19;4968973;28;20050;-68
2023/07/31 06:27:27;;;;;;;0.40;0.10;;;;;;;14.48;58.26;100523.84;4949048;28;20027;-69
2023/07/31 06:29:53;;;;;;;0.32;0.10;;;;;;;14.29;58.15;100520.63;4930244;28;20063;-69
2023/07/31 06:32:18;;;;;;;0.45;0.10;;;;;;;14.47;57.58;100521.28;4947359;28;20038;-70
2023/07/31 06:34:44;;;;;;;1.15;0.25;;;;;;;14.54;57.82;100517.34;4948486;28;20125;-70
2023/07/31 06:37:10;;;;;;;0.90;0.10;;;;;;;13.50;60.19;100517.38;4951528;28;20069;-70
2023/07/31 06:39:35;;;;;;;1.58;0.10;;;;;;;14.44;58.50;100505.72;4940284;28;20125;-69
2023/07/31 06:42:01;;;;;;;0.60;0.10;;;;;;;14.52;58.14;100503.44;4954107;28;20100;-72
2023/07/31 06:44:27;;;;;;;0.40;0.13;;;;;;;14.64;57.73;100497.41;4947963;28;20047;-73
2023/07/31 06:46:52;;;;;;;0.93;0.20;;;;;;;14.62;57.89;100501.09;4957863;28;21028;-70
2023/07/31 06:49:18;;;;;;;1.58;0.20;;;;;;;14.98;57.60;100495.25;4949286;28;20039;-70
2023/07/31 06:51:44;;;;;;;0.90;0.10;;;;;;;15.11;56.77;100490.88;4949827;28;20113;-69
2023/07/31 06:54:09;;;;;;;0.50;0.10;;;;;;;15.36;56.41;100489.31;4955043;28;20119;-70
2023/07/31 06:56:35;;;;;;;0.63;0.10;;;;;;;14.87;56.29;100495.94;4964933;28;20245;-69
2023/07/31 06:59:00;;;;;;;0.65;0.10;;;;;;;14.92;56.94;100496.50;4966851;28;20046;-70
2023/07/31 07:01:27;;;;;;;0.30;0.25;;;;;;;14.47;58.15;100480.06;4946183;28;20061;-70
2023/07/31 07:03:53;;;;;;;0.93;0.10;;;;;;;14.94;57.02;100478.81;4948408;28;22045;-70
2023/07/31 07:06:18;;;;;;;1.80;0.10;;;;;;;15.35;56.73;100477.94;4948195;28;20063;-70
2023/07/31 07:08:44;;;;;;;0.85;0.10;;;;;;;15.29;56.08;100485.41;4944877;28;20121;-70
2023/07/31 07:11:10;;;;;;;0.20;0.10;;;;;;;14.92;56.28;100479.88;4949296;28;20026;-70
2023/07/31 07:13:36;;;;;;;0.45;0.00;;;;;;;14.96;56.44;100479.56;4942779;28;20478;-70
2023/07/31 07:16:01;;;;;;;1.10;0.17;;;;;;;14.91;56.85;100483.44;4953640;28;20085;-70
2023/07/31 07:18:27;;;;;;;0.38;0.20;;;;;;;14.70;57.04;100481.25;4963061;28;20039;-70
2023/07/31 07:20:54;;;;;;;0.32;0.10;;;;;;;14.54;57.60;100491.03;4938960;28;20633;-69
2023/07/31 07:23:20;;;;;;;0.98;0.10;;;;;;;14.86;56.84;100486.38;4952517;28;20042;-69
2023/07/31 07:25:47;;;;;;;0.25;0.10;;;;;;;14.34;58.04;100477.34;4962549;28;20088;-70
2023/07/31 07:28:13;;;;;;;0.32;0.10;;;;;;;14.73;57.72;100475.78;4970864;28;20041;-70
2023/07/31 07:30:39;;;;;;;1.52;0.20;;;;;;;14.66;58.14;100478.94;4966076;28;20057;-69
2023/07/31 07:33:05;;;;;;;1.13;0.15;;;;;;;13.91;59.57;100466.81;4950739;28;20101;-70
2023/07/31 07:35:32;;;;;;;1.25;0.10;;;;;;;14.33;58.71;100477.44;4945818;28;20046;-70
2023/07/31 07:37:58;;;;;;;0.25;0.10;;;;;;;14.83;57.41;100481.28;4950267;28;20057;-71
2023/07/31 07:40:23;;;;;;;1.88;0.00;;;;;;;14.60;58.14;100472.25;4944329;28;20537;-69
2023/07/31 07:42:50;;;;;;;0.25;0.00;;;;;;;14.52;58.29;100474.50;4946120;28;20035;-70
2023/07/31 07:45:15;;;;;;;0.30;0.20;;;;;;;14.73;57.60;100465.28;4960677;28;20110;-72
2023/07/31 07:47:41;;;;;;;0.30;0.05;;;;;;;14.35;58.49;100465.03;4964860;28;20137;-70
2023/07/31 07:50:07;;;;;;;0.30;0.03;;;;;;;14.02;58.75;100463.53;4960052;28;20477;-71
2023/07/31 07:52:33;;;;;;;0.80;0.10;;;;;;;14.50;58.05;100464.13;4964753;28;20050;-71
2023/07/31 07:55:00;;;;;;;0.30;0.10;;;;;;;14.50;57.77;100468.50;4965531;28;20050;-71
2023/07/31 07:57:25;;;;;;;1.90;0.10;;;;;;;14.60;57.33;100463.53;4964500;28;20038;-70
2023/07/31 07:59:51;;;;;;;0.40;0.10;;;;;;;14.85;57.42;100462.78;4954761;28;20054;-71
2023/07/31 08:02:16;;;;;;;0.30;0.08;;;;;;;14.95;57.02;100458.63;4944703;28;20473;-70
2023/07/31 08:04:42;;;;;;;0.17;0.00;;;;;;;14.89;56.81;100459.03;4945723;28;20042;-71
2023/07/31 08:07:07;;;;;;;0.75;0.20;;;;;;;14.77;56.65;100450.97;4949434;28;20031;-70
2023/07/31 08:09:33;;;;;;;1.75;0.10;;;;;;;14.83;56.95;100451.53;4948297;28;21012;-71
2023/07/31 08:12:02;;;;;;;0.68;0.10;;;;;;;14.88;56.89;100452.06;4944962;28;20035;-70
2023/07/31 08:14:27;;;;;;;2.10;0.65;;;;;;;14.72;55.89;100441.69;4945228;28;20047;-70
2023/07/31 08:16:53;;;;;;;0.57;0.10;;;;;;;14.75;56.05;100441.50;4946019;28;20086;-70
2023/07/31 08:19:18;;;;;;;0.55;0.20;;;;;;;14.76;56.07;100443.19;4946287;28;20304;-70
2023/07/31 08:21:44;;;;;;;0.82;0.20;;;;;;;14.91;56.41;100441.34;4942594;28;20033;-70
2023/07/31 08:24:09;;;;;;;1.60;0.57;;;;;;;14.93;55.67;100431.56;4952016;28;20050;-70
2023/07/31 08:26:35;;;;;;;0.40;0.10;;;;;;;14.74;55.08;100435.38;4966083;28;20100;-70
2023/07/31 08:29:01;;;;;;;2.60;0.43;;;;;;;14.48;55.20;100433.59;4959985;28;20050;-70
2023/07/31 08:31:26;;;;;;;0.93;0.10;;;;;;;14.18;55.57;100426.66;4962195;28;20046;-70
2023/07/31 08:33:52;;;;;;;1.88;0.30;;;;;;;14.12;56.62;100413.88;4962605;28;20038;-71
2023/07/31 08:36:17;;;;;;;0.38;0.10;;;;;;;14.17;57.21;100417.09;4960139;28;20030;-70
2023/07/31 08:38:45;;;;;;;1.05;0.13;;;;;;;14.26;57.29;100421.78;4955381;28;20536;-70
2023/07/31 08:41:11;;;;;;;1.25;0.22;;;;;;;14.42;57.29;100424.31;4963214;28;20103;-70
2023/07/31 08:43:37;;;;;;;1.05;0.10;;;;;;;14.41;57.14;100405.97;4956310;28;20547;-70
2023/07/31 08:46:03;;;;;;;0.98;0.10;;;;;;;14.31;57.46;100403.91;4963535;28;20040;-70
2023/07/31 08:48:29;;;;;;;4.55;0.57;;;;;;;14.10;57.05;100402.66;4959740;28;20744;-70
2023/07/31 08:50:57;;;;;;;1.70;0.30;;;;;;;13.86;57.18;100405.00;4961210;28;21735;-70
2023/07/31 08:53:23;;;;;;;0.98;0.20;;;;;;;13.87;58.03;100406.69;4961646;28;20646;-70
2023/07/31 08:55:49;;;;;;;1.40;0.20;;;;;;;13.98;57.84;100396.34;4964598;28;20046;-70
2023/07/31 08:58:15;;;;;;;1.60;0.55;;;;;;;13.95;57.71;100399.19;4966793;28;20039;-70
2023/07/31 09:00:44;;;;;;;2.47;0.20;;;;;;;13.96;57.62;100407.91;4946115;28;20050;-70
2023/07/31 09:03:14;;;;;;;2.83;0.47;;;;;;;13.91;57.53;100397.69;4945273;28;20043;-70
2023/07/31 09:05:44;;;;;;;1.63;0.45;;;;;;;13.79;57.92;100395.81;4941350;28;20053;-71
2023/07/31 09:08:11;;;;;;;2.78;0.20;;;;;;;13.77;58.30;100405.56;4946716;28;20030;-70
2023/07/31 09:10:47;;;;;;;5.97;1.23;;;;;;;13.92;57.80;100405.47;4972331;28;20042;-70
2023/07/31 09:13:13;;;;;;;0.98;0.30;;;;;;;13.76;58.10;100403.88;4966274;28;20060;-70
2023/07/31 09:15:42;;;;;;;1.90;0.35;;;;;;;13.79;58.76;100394.03;4945253;28;20421;-71
2023/07/31 09:18:09;;;;;;;1.95;0.65;;;;;;;13.82;58.70;100399.09;4942622;28;20037;-70
2023/07/31 09:20:36;;;;;;;3.17;0.30;;;;;;;13.75;58.82;100389.91;4952355;28;20074;-70
2023/07/31 09:23:09;;;;;;;2.13;0.30;;;;;;;13.78;59.06;100381.81;4948015;28;20854;-70
2023/07/31 09:25:36;;;;;;;1.45;0.20;;;;;;;13.60;58.91;100373.28;4940100;28;20047;-70
2023/07/31 09:28:04;;;;;;;2.13;0.40;;;;;;;13.58;59.60;100371.69;4944775;28;20035;-69
2023/07/31 09:30:30;;;;;;;0.75;0.20;;;;;;;13.86;58.78;100366.44;4957454;28;20054;-69
2023/07/31 09:33:07;;;;;;;1.67;0.10;;;;;;;13.70;58.68;100360.47;4963938;28;20042;-70
2023/07/31 09:35:37;;;;;;;0.63;0.10;;;;;;;13.77;58.56;100367.00;4975272;28;20149;-70
2023/07/31 09:38:12;;;;;;;0.63;0.17;;;;;;;13.96;58.29;100361.44;4960059;28;20163;-70
2023/07/31 09:40:40;;;;;;;1.23;0.52;;;;;;;14.08;58.61;100362.47;4962509;28;20042;-70
2023/07/31 09:43:12;;;;;;;3.10;0.30;;;;;;;14.12;57.76;100354.31;4964425;28;20117;-70
2023/07/31 09:45:42;;;;;;;2.65;0.25;;;;;;;14.07;58.31;100360.78;4956527;28;20133;-70
2023/07/31 09:48:16;;;;;;;2.03;0.25;;;;;;;14.18;58.47;100353.06;4965545;28;20443;-71
2023/07/31 09:50:45;;;;;;;0.45;0.13;;;;;;;14.04;58.64;100347.84;4961789;28;20057;-70
2023/07/31 09:53:10;;;;;;;1.10;0.25;;;;;;;14.08;58.35;100351.97;4966759;28;20034;-70
2023/07/31 09:55:38;;;;;;;2.05;0.20;;;;;;;13.98;58.31;100338.56;4962779;28;20053;-70
2023/07/31 09:58:05;;;;;;;4.20;0.52;;;;;;;14.02;59.11;100336.59;4961233;28;20212;-70
2023/07/31 10:00:31;;;;;;;2.08;0.45;;;;;;;14.11;58.68;100333.38;4963267;28;20550;-70
2023/07/31 10:03:08;;;;;;;1.35;0.40;;;;;;;14.06;58.91;100328.41;4963897;28;20424;-70
2023/07/31 10:05:35;;;;;;;1.25;0.30;;;;;;;14.13;59.57;100340.22;4945217;28;20233;-71
2023/07/31 10:08:01;;;;;;;0.90;0.20;;;;;;;14.43;59.23;100330.50;4964794;28;20034;-70
2023/07/31 10:10:27;;;;;;;1.02;0.30;;;;;;;14.62;59.02;100325.72;4964315;28;20039;-70
2023/07/31 10:12:53;;;;;;;3.10;0.85;;;;;;;14.73;58.94;100312.69;4963109;28;20169;-70
2023/07/31 10:15:22;;;;;;;19.70;3.80;;;;;;;14.88;58.90;100315.25;4962038;28;20065;-70
2023/07/31 10:17:49;;;;;;;2.10;0.55;;;;;;;15.03;59.20;100306.31;4948734;28;20398;-70
2023/07/31 10:20:18;;;;;;;3.22;0.85;;;;;;;14.54;61.38;100306.97;4963650;28;20476;-71
2023/07/31 10:22:47;;;;;;;1.95;1.15;;;;;;;14.53;62.12;100311.38;4949369;28;20456;-70
2023/07/31 10:25:15;;;;;;;6.88;1.00;;;;;;;14.81;61.09;100309.53;4965510;28;20034;-70
2023/07/31 10:27:41;;;;;;;2.30;0.88;;;;;;;14.98;60.84;100297.91;4963011;28;20022;-70
2023/07/31 10:30:18;;;;;;;2.35;1.35;;;;;;;15.08;61.12;100296.34;4964344;28;20050;-70
2023/07/31 10:32:45;;;;;;;2.53;1.02;;;;;;;15.06;61.27;100297.38;4947350;28;20169;-70
2023/07/31 10:35:11;;;;;;;3.85;1.45;;;;;;;15.46;59.99;100298.16;4964283;28;20142;-71
2023/07/31 10:37:44;;;;;;;2.00;0.98;;;;;;;15.08;60.94;100295.47;4962932;28;20457;-70
2023/07/31 10:40:16;;;;;;;2.63;1.20;;;;;;;15.56;59.66;100291.28;4967078;28;20057;-70
2023/07/31 10:42:45;;;;;;;2.53;1.13;;;;;;;15.73;60.09;100284.81;4962825;28;20702;-70
2023/07/31 10:45:13;;;;;;;2.15;1.30;;;;;;;15.97;59.39;100286.63;4931637;28;20555;-70
2023/07/31 10:47:47;;;;;;;1.52;0.70;;;;;;;15.62;60.15;100286.50;4966466;28;20031;-71
2023/07/31 10:50:17;;;;;;;1.85;0.95;;;;;;;15.17;61.20;100290.44;4970411;28;20157;-70
2023/07/31 10:52:52;;;;;;;2.05;0.73;;;;;;;15.84;60.05;100276.16;4948689;28;20061;-70
2023/07/31 10:55:29;;;;;;;4.05;1.20;;;;;;;15.73;59.89;100274.28;4967272;28;20043;-70
2023/07/31 10:58:09;;;;;;;1.48;0.90;;;;;;;15.58;60.27;100286.75;4968676;28;20161;-70
2023/07/31 11:00:42;;;;;;;2.70;1.23;;;;;;;15.23;61.31;100273.41;4967416;28;20047;-70
2023/07/31 11:03:08;;;;;;;1.98;0.93;;;;;;;16.05;59.27;100270.31;4968056;28;20298;-70
2023/07/31 11:05:49;;;;;;;3.95;0.95;;;;;;;16.49;58.18;100258.25;4966956;28;20054;-70
2023/07/31 11:08:17;;;;;;;3.75;0.90;;;;;;;15.85;59.95;100269.91;4948034;28;20034;-71
2023/07/31 11:10:47;;;;;;;2.63;0.93;;;;;;;15.96;58.82;100263.88;4963396;28;20189;-70
2023/07/31 11:13:13;;;;;;;2.35;1.02;;;;;;;16.28;58.83;100271.25;4968031;28;20038;-70
2023/07/31 11:15:38;;;;;;;8.23;0.77;;;;;;;16.26;58.81;100271.34;4967517;28;20491;-70
2023/07/31 11:18:05;;;;;;;1.65;0.63;;;;;;;16.19;58.83;100278.88;4968907;28;20493;-70
2023/07/31 11:20:35;;;;;;;1.80;0.60;;;;;;;16.20;58.77;100277.09;4963751;28;20073;-70
2023/07/31 11:23:09;;;;;;;1.50;0.73;;;;;;;16.40;58.56;100276.47;4983104;28;20413;-68
2023/07/31 11:25:41;;;;;;;1.75;0.82;;;;;;;16.44;58.16;100276.22;4980907;28;23266;-69